sensor_id;sensor_type;location;lat;lon;timestamp;pressure;altitude;pressure_sealevel;temperature;humidity
70968;BME280;58629;48.808;8.820;2023-09-07T00:01:42;97478.22;;;13.06;100.00
70968;BME280;58629;48.808;8.820;2023-09-07T00:04:07;97471.41;;;13.05;100.00
70968;BME280;58629;48.808;8.820;2023-09-07T00:06:32;97469.47;;;13.05;100.00
70968;BME280;58629;48.808;8.820;2023-09-07T00:08:59;97472.47;;;13.07;100.00
70968;BME280;58629;48.808;8.820;2023-09-07T00:11:25;97469.91;;;13.04;100.00
70968;BME280;58629;48.808;8.820;2023-09-07T00:13:50;97468.38;;;13.03;100.00
70968;BME280;58629;48.808;8.820;2023-09-07T00:16:16;97473.03;;;12.99;100.00
70968;BME280;58629;48.808;8.820;2023-09-07T00:18:41;97468.19;;;12.94;100.00
70968;BME280;58629;48.808;8.820;2023-09-07T00:21:06;97460.22;;;12.94;100.00
70968;BME280;58629;48.808;8.820;2023-09-07T00:23:32;97470.69;;;12.85;100.00
70968;BME280;58629;48.808;8.820;2023-09-07T00:25:57;97465.56;;;12.74;100.00
70968;BME280;58629;48.808;8.820;2023-09-07T00:28:22;97472.19;;;12.66;100.00
70968;BME280;58629;48.808;8.820;2023-09-07T00:30:48;97475.94;;;12.69;100.00
70968;BME280;58629;48.808;8.820;2023-09-07T00:33:13;97472.94;;;12.67;100.00
70968;BME280;58629;48.808;8.820;2023-09-07T00:35:38;97468.88;;;12.62;100.00
70968;BME280;58629;48.808;8.820;2023-09-07T00:38:03;97470.03;;;12.61;100.00
70968;BME280;58629;48.808;8.820;2023-09-07T00:40:30;97468.09;;;12.62;100.00
70968;BME280;58629;48.808;8.820;2023-09-07T00:42:55;97467.72;;;12.63;100.00
70968;BME280;58629;48.808;8.820;2023-09-07T00:45:20;97466.97;;;12.63;100.00
70968;BME280;58629;48.808;8.820;2023-09-07T00:47:46;97467.03;;;12.59;100.00
70968;BME280;58629;48.808;8.820;2023-09-07T00:50:12;97460.63;;;12.57;100.00
70968;BME280;58629;48.808;8.820;2023-09-07T00:52:45;97462.19;;;12.54;100.00
70968;BME280;58629;48.808;8.820;2023-09-07T00:55:12;97469.09;;;12.52;100.00
70968;BME280;58629;48.808;8.820;2023-09-07T00:57:38;97463.84;;;12.48;100.00
70968;BME280;58629;48.808;8.820;2023-09-07T01:00:09;97466.50;;;12.48;100.00
70968;BME280;58629;48.808;8.820;2023-09-07T01:02:35;97466.56;;;12.45;100.00
70968;BME280;58629;48.808;8.820;2023-09-07T01:05:01;97469.97;;;12.45;100.00
70968;BME280;58629;48.808;8.820;2023-09-07T01:10:01;97463.56;;;12.43;100.00
70968;BME280;58629;48.808;8.820;2023-09-07T01:12:27;97467.06;;;12.40;100.00
70968;BME280;58629;48.808;8.820;2023-09-07T01:14:53;97462.88;;;12.39;100.00
70968;BME280;58629;48.808;8.820;2023-09-07T01:17:19;97461.44;;;12.34;100.00
70968;BME280;58629;48.808;8.820;2023-09-07T01:19:48;97456.22;;;12.31;100.00
70968;BME280;58629;48.808;8.820;2023-09-07T01:22:16;97457.38;;;12.30;100.00
70968;BME280;58629;48.808;8.820;2023-09-07T01:27:17;97448.41;;;12.24;100.00
70968;BME280;58629;48.808;8.820;2023-09-07T01:29:42;97454.03;;;12.26;100.00
70968;BME280;58629;48.808;8.820;2023-09-07T01:32:07;97457.50;;;12.23;100.00
70968;BME280;58629;48.808;8.820;2023-09-07T01:34:35;97450.03;;;12.17;100.00
70968;BME280;58629;48.808;8.820;2023-09-07T01:37:00;97458.06;;;12.14;100.00
70968;BME280;58629;48.808;8.820;2023-09-07T01:39:25;97459.28;;;12.09;100.00
70968;BME280;58629;48.808;8.820;2023-09-07T01:41:51;97458.59;;;12.05;100.00
70968;BME280;58629;48.808;8.820;2023-09-07T01:44:16;97456.00;;;12.02;100.00
70968;BME280;58629;48.808;8.820;2023-09-07T01:46:42;97459.47;;;11.99;100.00
70968;BME280;58629;48.808;8.820;2023-09-07T01:49:07;97456.47;;;11.97;100.00
70968;BME280;58629;48.808;8.820;2023-09-07T01:51:32;97454.22;;;11.95;100.00
70968;BME280;58629;48.808;8.820;2023-09-07T01:53:58;97453.47;;;11.95;100.00
70968;BME280;58629;48.808;8.820;2023-09-07T01:56:23;97450.53;;;11.89;100.00
70968;BME280;58629;48.808;8.820;2023-09-07T01:58:49;97450.19;;;11.87;100.00
70968;BME280;58629;48.808;8.820;2023-09-07T02:01:29;97454.06;;;11.83;100.00
70968;BME280;58629;48.808;8.820;2023-09-07T02:03:55;97453.34;;;11.82;100.00
70968;BME280;58629;48.808;8.820;2023-09-07T02:06:21;97450.00;;;11.78;100.00
70968;BME280;58629;48.808;8.820;2023-09-07T02:08:46;97458.28;;;11.80;100.00
70968;BME280;58629;48.808;8.820;2023-09-07T02:11:12;97456.72;;;11.83;100.00
70968;BME280;58629;48.808;8.820;2023-09-07T02:13:37;97449.22;;;11.78;100.00
70968;BME280;58629;48.808;8.820;2023-09-07T02:16:06;97456.22;;;11.68;100.00
70968;BME280;58629;48.808;8.820;2023-09-07T02:18:32;97450.66;;;11.59;100.00
70968;BME280;58629;48.808;8.820;2023-09-07T02:21:05;97450.31;;;11.57;100.00
70968;BME280;58629;48.808;8.820;2023-09-07T02:23:31;97453.03;;;11.54;100.00
70968;BME280;58629;48.808;8.820;2023-09-07T02:25:57;97446.34;;;11.46;100.00
70968;BME280;58629;48.808;8.820;2023-09-07T02:28:23;97453.09;;;11.50;100.00
70968;BME280;58629;48.808;8.820;2023-09-07T02:30:49;97440.50;;;11.54;100.00
70968;BME280;58629;48.808;8.820;2023-09-07T02:33:14;97444.22;;;11.60;100.00
70968;BME280;58629;48.808;8.820;2023-09-07T02:35:39;97441.06;;;11.65;100.00
70968;BME280;58629;48.808;8.820;2023-09-07T02:38:05;97443.78;;;11.62;100.00
70968;BME280;58629;48.808;8.820;2023-09-07T02:40:30;97448.88;;;11.53;100.00
70968;BME280;58629;48.808;8.820;2023-09-07T02:42:55;97449.31;;;11.48;100.00
70968;BME280;58629;48.808;8.820;2023-09-07T02:45:21;97448.63;;;11.44;100.00
70968;BME280;58629;48.808;8.820;2023-09-07T02:47:46;97448.22;;;11.45;100.00
70968;BME280;58629;48.808;8.820;2023-09-07T02:50:14;97448.28;;;11.42;100.00
70968;BME280;58629;48.808;8.820;2023-09-07T02:52:41;97453.19;;;11.43;100.00
70968;BME280;58629;48.808;8.820;2023-09-07T02:55:06;97449.38;;;11.44;100.00
70968;BME280;58629;48.808;8.820;2023-09-07T02:57:32;97449.03;;;11.42;100.00
70968;BME280;58629;48.808;8.820;2023-09-07T02:59:57;97447.84;;;11.47;100.00
70968;BME280;58629;48.808;8.820;2023-09-07T03:02:23;97456.94;;;11.46;100.00
70968;BME280;58629;48.808;8.820;2023-09-07T03:04:53;97451.63;;;11.46;100.00
70968;BME280;58629;48.808;8.820;2023-09-07T03:07:18;97443.69;;;11.46;100.00
70968;BME280;58629;48.808;8.820;2023-09-07T03:09:44;97451.91;;;11.51;100.00
70968;BME280;58629;48.808;8.820;2023-09-07T03:12:09;97451.53;;;11.53;100.00
70968;BME280;58629;48.808;8.820;2023-09-07T03:14:35;97445.88;;;11.51;100.00
70968;BME280;58629;48.808;8.820;2023-09-07T03:17:00;97442.19;;;11.45;100.00
70968;BME280;58629;48.808;8.820;2023-09-07T03:19:26;97435.38;;;11.44;100.00
70968;BME280;58629;48.808;8.820;2023-09-07T03:21:52;97438.44;;;11.42;100.00
70968;BME280;58629;48.808;8.820;2023-09-07T03:24:17;97441.16;;;11.39;100.00
70968;BME280;58629;48.808;8.820;2023-09-07T03:26:43;97434.84;;;11.29;100.00
70968;BME280;58629;48.808;8.820;2023-09-07T03:29:09;97428.22;;;11.17;100.00
70968;BME280;58629;48.808;8.820;2023-09-07T03:31:34;97429.81;;;11.11;100.00
70968;BME280;58629;48.808;8.820;2023-09-07T03:34:00;97426.19;;;11.02;100.00
70968;BME280;58629;48.808;8.820;2023-09-07T03:36:26;97432.25;;;11.02;100.00
70968;BME280;58629;48.808;8.820;2023-09-07T03:38:51;97433.72;;;11.03;100.00
70968;BME280;58629;48.808;8.820;2023-09-07T03:41:16;97436.38;;;11.03;100.00
70968;BME280;58629;48.808;8.820;2023-09-07T03:43:42;97445.47;;;11.02;100.00
70968;BME280;58629;48.808;8.820;2023-09-07T03:46:07;97438.38;;;10.96;100.00
70968;BME280;58629;48.808;8.820;2023-09-07T03:48:32;97436.47;;;10.96;100.00
70968;BME280;58629;48.808;8.820;2023-09-07T03:50:58;97433.84;;;10.96;100.00
70968;BME280;58629;48.808;8.820;2023-09-07T03:53:23;97428.53;;;10.96;100.00
70968;BME280;58629;48.808;8.820;2023-09-07T03:55:48;97426.69;;;10.93;100.00
70968;BME280;58629;48.808;8.820;2023-09-07T03:58:13;97429.34;;;10.93;100.00
70968;BME280;58629;48.808;8.820;2023-09-07T04:00:39;97427.78;;;10.96;100.00
70968;BME280;58629;48.808;8.820;2023-09-07T04:03:08;97425.13;;;10.96;100.00
70968;BME280;58629;48.808;8.820;2023-09-07T04:05:33;97419.44;;;10.97;100.00
70968;BME280;58629;48.808;8.820;2023-09-07T04:07:59;97423.25;;;10.96;100.00
70968;BME280;58629;48.808;8.820;2023-09-07T04:10:26;97423.25;;;10.96;100.00
70968;BME280;58629;48.808;8.820;2023-09-07T04:12:51;97428.19;;;10.94;100.00
70968;BME280;58629;48.808;8.820;2023-09-07T04:15:16;97429.34;;;10.93;100.00
70968;BME280;58629;48.808;8.820;2023-09-07T04:17:42;97430.19;;;10.87;100.00
70968;BME280;58629;48.808;8.820;2023-09-07T04:20:08;97429.09;;;10.84;100.00
70968;BME280;58629;48.808;8.820;2023-09-07T04:22:34;97418.91;;;10.83;100.00
70968;BME280;58629;48.808;8.820;2023-09-07T04:24:59;97428.31;;;10.84;100.00
70968;BME280;58629;48.808;8.820;2023-09-07T04:27:24;97421.25;;;10.77;100.00
70968;BME280;58629;48.808;8.820;2023-09-07T04:29:50;97422.50;;;10.69;100.00
70968;BME280;58629;48.808;8.820;2023-09-07T04:32:16;97425.50;;;10.71;100.00
70968;BME280;58629;48.808;8.820;2023-09-07T04:34:41;97422.63;;;11.12;100.00
70968;BME280;58629;48.808;8.820;2023-09-07T04:37:06;97419.63;;;11.33;100.00
70968;BME280;58629;48.808;8.820;2023-09-07T04:39:32;97423.44;;;11.55;100.00
70968;BME280;58629;48.808;8.820;2023-09-07T04:41:57;97424.31;;;11.72;100.00
70968;BME280;58629;48.808;8.820;2023-09-07T04:44:22;97420.94;;;11.91;100.00
70968;BME280;58629;48.808;8.820;2023-09-07T04:46:47;97421.09;;;12.03;100.00
70968;BME280;58629;48.808;8.820;2023-09-07T04:49:13;97427.28;;;12.16;100.00
70968;BME280;58629;48.808;8.820;2023-09-07T04:51:38;97424.44;;;12.27;100.00
70968;BME280;58629;48.808;8.820;2023-09-07T04:54:04;97421.56;;;12.38;100.00
70968;BME280;58629;48.808;8.820;2023-09-07T04:56:29;97422.50;;;12.47;100.00
70968;BME280;58629;48.808;8.820;2023-09-07T04:58:55;97422.75;;;12.53;100.00
70968;BME280;58629;48.808;8.820;2023-09-07T05:01:20;97420.78;;;12.57;100.00
70968;BME280;58629;48.808;8.820;2023-09-07T05:03:45;97419.13;;;12.63;100.00
70968;BME280;58629;48.808;8.820;2023-09-07T05:06:11;97416.72;;;12.68;100.00
70968;BME280;58629;48.808;8.820;2023-09-07T05:08:36;97413.28;;;12.71;100.00
70968;BME280;58629;48.808;8.820;2023-09-07T05:11:03;97423.06;;;12.74;100.00
70968;BME280;58629;48.808;8.820;2023-09-07T05:13:29;97414.66;;;12.76;100.00
70968;BME280;58629;48.808;8.820;2023-09-07T05:15:55;97412.78;;;12.76;100.00
70968;BME280;58629;48.808;8.820;2023-09-07T05:18:21;97419.50;;;12.81;100.00
70968;BME280;58629;48.808;8.820;2023-09-07T05:20:47;97425.16;;;12.83;100.00
70968;BME280;58629;48.808;8.820;2023-09-07T05:23:18;97423.19;;;12.87;100.00
70968;BME280;58629;48.808;8.820;2023-09-07T05:25:45;97421.75;;;12.82;99.91
70968;BME280;58629;48.808;8.820;2023-09-07T05:28:13;97426.97;;;12.86;100.00
70968;BME280;58629;48.808;8.820;2023-09-07T05:30:38;97435.63;;;12.90;100.00
70968;BME280;58629;48.808;8.820;2023-09-07T05:33:04;97434.06;;;12.92;100.00
70968;BME280;58629;48.808;8.820;2023-09-07T05:35:29;97437.81;;;12.95;100.00
70968;BME280;58629;48.808;8.820;2023-09-07T05:37:57;97429.28;;;13.03;100.00
70968;BME280;58629;48.808;8.820;2023-09-07T05:40:23;97437.19;;;13.07;100.00
70968;BME280;58629;48.808;8.820;2023-09-07T05:42:48;97445.97;;;13.04;100.00
70968;BME280;58629;48.808;8.820;2023-09-07T05:45:13;97443.22;;;13.07;100.00
70968;BME280;58629;48.808;8.820;2023-09-07T05:47:38;97445.41;;;13.13;100.00
70968;BME280;58629;48.808;8.820;2023-09-07T05:50:04;97445.41;;;13.13;100.00
70968;BME280;58629;48.808;8.820;2023-09-07T05:52:30;97443.84;;;13.15;100.00
70968;BME280;58629;48.808;8.820;2023-09-07T05:54:55;97449.88;;;13.16;100.00
70968;BME280;58629;48.808;8.820;2023-09-07T05:57:20;97453.22;;;13.20;100.00
70968;BME280;58629;48.808;8.820;2023-09-07T05:59:45;97450.56;;;13.20;100.00
70968;BME280;58629;48.808;8.820;2023-09-07T06:02:11;97452.38;;;13.07;99.14
70968;BME280;58629;48.808;8.820;2023-09-07T06:04:36;97454.38;;;13.19;100.00
70968;BME280;58629;48.808;8.820;2023-09-07T06:07:02;97455.31;;;13.28;100.00
70968;BME280;58629;48.808;8.820;2023-09-07T06:09:27;97451.31;;;13.36;100.00
70968;BME280;58629;48.808;8.820;2023-09-07T06:11:54;97445.16;;;13.39;100.00
70968;BME280;58629;48.808;8.820;2023-09-07T06:14:19;97450.13;;;13.53;100.00
70968;BME280;58629;48.808;8.820;2023-09-07T06:16:45;97443.06;;;13.63;100.00
70968;BME280;58629;48.808;8.820;2023-09-07T06:19:10;97444.66;;;13.60;100.00
70968;BME280;58629;48.808;8.820;2023-09-07T06:21:35;97439.91;;;13.68;100.00
70968;BME280;58629;48.808;8.820;2023-09-07T06:24:01;97442.31;;;13.62;100.00
70968;BME280;58629;48.808;8.820;2023-09-07T06:26:26;97448.03;;;13.77;100.00
70968;BME280;58629;48.808;8.820;2023-09-07T06:28:51;97448.28;;;13.82;100.00
70968;BME280;58629;48.808;8.820;2023-09-07T06:31:17;97448.75;;;13.93;100.00
70968;BME280;58629;48.808;8.820;2023-09-07T06:33:42;97448.81;;;14.06;100.00
70968;BME280;58629;48.808;8.820;2023-09-07T06:36:07;97445.94;;;14.13;100.00
70968;BME280;58629;48.808;8.820;2023-09-07T06:38:32;97454.47;;;14.21;100.00
70968;BME280;58629;48.808;8.820;2023-09-07T06:40:58;97457.44;;;14.39;100.00
70968;BME280;58629;48.808;8.820;2023-09-07T06:43:23;97452.06;;;14.55;98.71
70968;BME280;58629;48.808;8.820;2023-09-07T06:45:48;97454.41;;;14.65;97.76
70968;BME280;58629;48.808;8.820;2023-09-07T06:48:14;97454.00;;;14.80;98.45
70968;BME280;58629;48.808;8.820;2023-09-07T06:50:39;97451.00;;;14.90;98.47
70968;BME280;58629;48.808;8.820;2023-09-07T06:53:04;97455.72;;;14.99;98.28
70968;BME280;58629;48.808;8.820;2023-09-07T06:55:30;97454.97;;;15.11;96.83
70968;BME280;58629;48.808;8.820;2023-09-07T06:57:55;97449.22;;;15.25;97.17
70968;BME280;58629;48.808;8.820;2023-09-07T07:00:21;97457.09;;;15.41;96.74
70968;BME280;58629;48.808;8.820;2023-09-07T07:02:46;97469.91;;;15.58;96.76
70968;BME280;58629;48.808;8.820;2023-09-07T07:05:11;97462.16;;;15.73;95.84
70968;BME280;58629;48.808;8.820;2023-09-07T07:07:36;97466.72;;;15.85;95.60
70968;BME280;58629;48.808;8.820;2023-09-07T07:10:02;97469.00;;;16.08;94.64
70968;BME280;58629;48.808;8.820;2023-09-07T07:12:28;97467.94;;;16.27;93.75
70968;BME280;58629;48.808;8.820;2023-09-07T07:14:53;97471.91;;;16.44;92.19
70968;BME280;58629;48.808;8.820;2023-09-07T07:17:20;97471.13;;;16.57;92.07
70968;BME280;58629;48.808;8.820;2023-09-07T07:19:46;97468.56;;;16.75;90.98
70968;BME280;58629;48.808;8.820;2023-09-07T07:22:12;97470.25;;;16.90;91.15
70968;BME280;58629;48.808;8.820;2023-09-07T07:24:37;97472.28;;;17.08;90.86
70968;BME280;58629;48.808;8.820;2023-09-07T07:27:03;97475.19;;;17.31;91.33
70968;BME280;58629;48.808;8.820;2023-09-07T07:29:28;97463.97;;;17.55;90.47
70968;BME280;58629;48.808;8.820;2023-09-07T07:31:54;97466.84;;;17.78;88.18
70968;BME280;58629;48.808;8.820;2023-09-07T07:34:19;97458.22;;;18.01;87.01
70968;BME280;58629;48.808;8.820;2023-09-07T07:36:44;97450.16;;;18.19;85.97
70968;BME280;58629;48.808;8.820;2023-09-07T07:39:09;97451.63;;;18.39;85.67
70968;BME280;58629;48.808;8.820;2023-09-07T07:41:35;97456.53;;;18.58;84.55
70968;BME280;58629;48.808;8.820;2023-09-07T07:44:01;97455.44;;;18.74;83.16
70968;BME280;58629;48.808;8.820;2023-09-07T07:46:26;97451.69;;;18.89;82.13
70968;BME280;58629;48.808;8.820;2023-09-07T07:48:52;97444.47;;;19.04;81.82
70968;BME280;58629;48.808;8.820;2023-09-07T07:51:17;97448.88;;;19.17;81.23
70968;BME280;58629;48.808;8.820;2023-09-07T07:53:42;97445.25;;;19.29;80.41
70968;BME280;58629;48.808;8.820;2023-09-07T07:56:15;97449.22;;;19.42;81.29
70968;BME280;58629;48.808;8.820;2023-09-07T07:58:41;97436.75;;;19.54;79.52
70968;BME280;58629;48.808;8.820;2023-09-07T08:01:16;97444.88;;;19.68;79.20
70968;BME280;58629;48.808;8.820;2023-09-07T08:03:41;97437.59;;;19.83;79.08
70968;BME280;58629;48.808;8.820;2023-09-07T08:06:07;97445.31;;;19.91;78.47
70968;BME280;58629;48.808;8.820;2023-09-07T08:08:32;97445.06;;;20.03;77.73
70968;BME280;58629;48.808;8.820;2023-09-07T08:10:58;97441.09;;;20.13;78.08
70968;BME280;58629;48.808;8.820;2023-09-07T08:13:25;97441.78;;;20.23;77.44
70968;BME280;58629;48.808;8.820;2023-09-07T08:15:50;97443.44;;;20.35;77.18
70968;BME280;58629;48.808;8.820;2023-09-07T08:18:16;97443.19;;;20.47;76.93
70968;BME280;58629;48.808;8.820;2023-09-07T08:20:41;97438.25;;;20.60;76.79
70968;BME280;58629;48.808;8.820;2023-09-07T08:23:06;97441.31;;;20.68;75.31
70968;BME280;58629;48.808;8.820;2023-09-07T08:25:33;97440.75;;;20.79;75.37
70968;BME280;58629;48.808;8.820;2023-09-07T08:27:58;97432.41;;;20.91;75.38
70968;BME280;58629;48.808;8.820;2023-09-07T08:30:25;97438.78;;;21.08;75.18
70968;BME280;58629;48.808;8.820;2023-09-07T08:32:51;97435.50;;;21.19;73.47
70968;BME280;58629;48.808;8.820;2023-09-07T08:35:16;97441.78;;;21.30;73.88
70968;BME280;58629;48.808;8.820;2023-09-07T08:37:42;97439.44;;;21.38;73.30
70968;BME280;58629;48.808;8.820;2023-09-07T08:40:08;97440.78;;;21.48;72.40
70968;BME280;58629;48.808;8.820;2023-09-07T08:42:37;97449.56;;;21.63;72.48
70968;BME280;58629;48.808;8.820;2023-09-07T08:45:04;97444.31;;;21.74;71.61
70968;BME280;58629;48.808;8.820;2023-09-07T08:47:34;97434.41;;;21.86;72.05
70968;BME280;58629;48.808;8.820;2023-09-07T08:50:01;97441.16;;;21.96;71.36
70968;BME280;58629;48.808;8.820;2023-09-07T08:52:27;97436.63;;;22.07;70.82
70968;BME280;58629;48.808;8.820;2023-09-07T08:54:53;97437.94;;;22.17;70.17
70968;BME280;58629;48.808;8.820;2023-09-07T08:57:20;97438.03;;;22.28;70.48
70968;BME280;58629;48.808;8.820;2023-09-07T08:59:46;97437.69;;;22.41;70.41
70968;BME280;58629;48.808;8.820;2023-09-07T09:02:12;97440.72;;;22.54;69.57
70968;BME280;58629;48.808;8.820;2023-09-07T09:04:37;97440.13;;;22.65;69.35
70968;BME280;58629;48.808;8.820;2023-09-07T09:07:04;97437.72;;;22.72;67.94
70968;BME280;58629;48.808;8.820;2023-09-07T09:09:29;97442.72;;;22.79;68.46
70968;BME280;58629;48.808;8.820;2023-09-07T09:12:06;97445.75;;;22.92;68.76
70968;BME280;58629;48.808;8.820;2023-09-07T09:14:31;97439.44;;;23.06;67.58
70968;BME280;58629;48.808;8.820;2023-09-07T09:16:57;97434.84;;;23.18;67.40
70968;BME280;58629;48.808;8.820;2023-09-07T09:19:32;97432.25;;;23.29;66.39
70968;BME280;58629;48.808;8.820;2023-09-07T09:21:58;97429.09;;;23.36;66.16
70968;BME280;58629;48.808;8.820;2023-09-07T09:24:24;97431.63;;;23.45;66.00
70968;BME280;58629;48.808;8.820;2023-09-07T09:26:49;97424.75;;;23.55;65.84
70968;BME280;58629;48.808;8.820;2023-09-07T09:29:15;97422.13;;;23.66;65.80
70968;BME280;58629;48.808;8.820;2023-09-07T09:31:40;97422.63;;;23.70;65.61
70968;BME280;58629;48.808;8.820;2023-09-07T09:34:06;97426.38;;;23.89;65.22
70968;BME280;58629;48.808;8.820;2023-09-07T09:36:35;97421.72;;;24.01;64.40
70968;BME280;58629;48.808;8.820;2023-09-07T09:39:01;97416.38;;;24.06;62.54
70968;BME280;58629;48.808;8.820;2023-09-07T09:41:30;97422.75;;;24.15;63.34
70968;BME280;58629;48.808;8.820;2023-09-07T09:43:57;97410.97;;;24.23;62.55
70968;BME280;58629;48.808;8.820;2023-09-07T09:46:24;97414.69;;;24.31;62.40
70968;BME280;58629;48.808;8.820;2023-09-07T09:48:50;97407.31;;;24.37;62.00
70968;BME280;58629;48.808;8.820;2023-09-07T09:51:17;97411.50;;;24.49;63.02
70968;BME280;58629;48.808;8.820;2023-09-07T09:53:44;97417.66;;;24.55;62.13
70968;BME280;58629;48.808;8.820;2023-09-07T09:56:10;97416.41;;;24.67;62.15
70968;BME280;58629;48.808;8.820;2023-09-07T09:58:37;97412.75;;;24.76;60.92
70968;BME280;58629;48.808;8.820;2023-09-07T10:01:04;97414.97;;;24.83;59.50
70968;BME280;58629;48.808;8.820;2023-09-07T10:03:47;97405.09;;;24.97;61.67
70968;BME280;58629;48.808;8.820;2023-09-07T10:06:24;97417.66;;;25.05;60.33
70968;BME280;58629;48.808;8.820;2023-09-07T10:09:02;97416.66;;;25.03;60.35
70968;BME280;58629;48.808;8.820;2023-09-07T10:11:34;97413.19;;;25.02;57.98
70968;BME280;58629;48.808;8.820;2023-09-07T10:14:03;97413.69;;;25.06;58.90
70968;BME280;58629;48.808;8.820;2023-09-07T10:16:40;97412.91;;;25.22;58.97
70968;BME280;58629;48.808;8.820;2023-09-07T10:19:17;97413.91;;;25.25;59.61
70968;BME280;58629;48.808;8.820;2023-09-07T10:21:42;97415.13;;;25.40;59.76
70968;BME280;58629;48.808;8.820;2023-09-07T10:24:08;97407.41;;;25.61;59.70
70968;BME280;58629;48.808;8.820;2023-09-07T10:26:34;97405.75;;;25.41;59.12
70968;BME280;58629;48.808;8.820;2023-09-07T10:29:00;97396.09;;;25.57;58.96
70968;BME280;58629;48.808;8.820;2023-09-07T10:31:26;97400.19;;;25.74;58.63
70968;BME280;58629;48.808;8.820;2023-09-07T10:33:51;97395.97;;;25.79;56.60
70968;BME280;58629;48.808;8.820;2023-09-07T10:36:25;97391.00;;;25.83;56.88
70968;BME280;58629;48.808;8.820;2023-09-07T10:38:51;97392.41;;;26.01;56.41
70968;BME280;58629;48.808;8.820;2023-09-07T10:41:20;97389.00;;;25.95;55.54
70968;BME280;58629;48.808;8.820;2023-09-07T10:43:54;97380.53;;;26.09;57.20
70968;BME280;58629;48.808;8.820;2023-09-07T10:46:23;97371.47;;;26.31;57.53
70968;BME280;58629;48.808;8.820;2023-09-07T10:48:53;97381.06;;;26.37;56.47
70968;BME280;58629;48.808;8.820;2023-09-07T10:51:19;97378.22;;;26.54;56.04
70968;BME280;58629;48.808;8.820;2023-09-07T10:53:45;97375.63;;;26.73;56.81
70968;BME280;58629;48.808;8.820;2023-09-07T10:56:10;97371.44;;;26.72;55.75
70968;BME280;58629;48.808;8.820;2023-09-07T10:58:37;97370.69;;;26.71;53.69
70968;BME280;58629;48.808;8.820;2023-09-07T11:01:05;97361.59;;;26.93;54.90
70968;BME280;58629;48.808;8.820;2023-09-07T11:03:30;97363.91;;;27.07;53.12
70968;BME280;58629;48.808;8.820;2023-09-07T11:06:04;97361.88;;;27.13;52.78
70968;BME280;58629;48.808;8.820;2023-09-07T11:08:31;97360.38;;;27.12;53.65
70968;BME280;58629;48.808;8.820;2023-09-07T11:10:58;97356.66;;;27.15;53.23
70968;BME280;58629;48.808;8.820;2023-09-07T11:13:24;97355.00;;;27.31;53.61
70968;BME280;58629;48.808;8.820;2023-09-07T11:15:53;97365.41;;;27.51;53.72
70968;BME280;58629;48.808;8.820;2023-09-07T11:18:20;97360.19;;;27.53;52.58
70968;BME280;58629;48.808;8.820;2023-09-07T11:20:49;97351.81;;;27.51;52.55
70968;BME280;58629;48.808;8.820;2023-09-07T11:23:16;97356.97;;;27.55;50.89
70968;BME280;58629;48.808;8.820;2023-09-07T11:25:42;97355.09;;;27.44;51.14
70968;BME280;58629;48.808;8.820;2023-09-07T11:28:09;97357.69;;;27.55;51.76
70968;BME280;58629;48.808;8.820;2023-09-07T11:30:35;97355.09;;;27.44;50.60
70968;BME280;58629;48.808;8.820;2023-09-07T11:33:05;97350.78;;;27.54;51.84
70968;BME280;58629;48.808;8.820;2023-09-07T11:35:32;97351.34;;;27.66;51.16
70968;BME280;58629;48.808;8.820;2023-09-07T11:38:00;97353.44;;;27.78;50.54
70968;BME280;58629;48.808;8.820;2023-09-07T11:40:26;97359.59;;;27.97;51.21
70968;BME280;58629;48.808;8.820;2023-09-07T11:42:51;97361.84;;;27.93;49.56
70968;BME280;58629;48.808;8.820;2023-09-07T11:45:16;97358.16;;;27.96;49.89
70968;BME280;58629;48.808;8.820;2023-09-07T11:47:43;97360.59;;;28.13;50.43
70968;BME280;58629;48.808;8.820;2023-09-07T11:50:08;97355.81;;;28.19;49.47
70968;BME280;58629;48.808;8.820;2023-09-07T11:52:34;97362.84;;;28.14;49.82
70968;BME280;58629;48.808;8.820;2023-09-07T11:54:59;97360.03;;;28.20;49.36
70968;BME280;58629;48.808;8.820;2023-09-07T11:57:25;97359.94;;;28.25;49.19
70968;BME280;58629;48.808;8.820;2023-09-07T11:59:50;97349.03;;;28.25;48.85
70968;BME280;58629;48.808;8.820;2023-09-07T12:02:15;97345.34;;;28.23;48.23
70968;BME280;58629;48.808;8.820;2023-09-07T12:04:42;97347.22;;;28.15;48.32
70968;BME280;58629;48.808;8.820;2023-09-07T12:07:08;97348.13;;;28.36;50.08
70968;BME280;58629;48.808;8.820;2023-09-07T12:09:33;97346.13;;;28.37;49.62
70968;BME280;58629;48.808;8.820;2023-09-07T12:11:58;97345.75;;;28.46;49.45
70968;BME280;58629;48.808;8.820;2023-09-07T12:14:24;97340.88;;;28.39;48.45
70968;BME280;58629;48.808;8.820;2023-09-07T12:16:49;97343.66;;;28.52;48.99
70968;BME280;58629;48.808;8.820;2023-09-07T12:19:14;97344.13;;;28.69;48.02
70968;BME280;58629;48.808;8.820;2023-09-07T12:21:39;97341.81;;;28.60;47.60
70968;BME280;58629;48.808;8.820;2023-09-07T12:24:07;97335.53;;;28.65;47.62
70968;BME280;58629;48.808;8.820;2023-09-07T12:26:32;97340.16;;;28.83;47.79
70968;BME280;58629;48.808;8.820;2023-09-07T12:28:57;97344.69;;;28.93;47.76
70968;BME280;58629;48.808;8.820;2023-09-07T12:31:23;97344.47;;;29.04;46.67
70968;BME280;58629;48.808;8.820;2023-09-07T12:33:48;97341.63;;;28.97;46.88
70968;BME280;58629;48.808;8.820;2023-09-07T12:36:13;97336.28;;;29.04;47.47
70968;BME280;58629;48.808;8.820;2023-09-07T12:38:39;97333.03;;;29.06;46.60
70968;BME280;58629;48.808;8.820;2023-09-07T12:41:04;97340.09;;;29.15;46.45
70968;BME280;58629;48.808;8.820;2023-09-07T12:43:30;97341.00;;;29.04;46.65
70968;BME280;58629;48.808;8.820;2023-09-07T12:45:55;97346.81;;;29.14;47.29
70968;BME280;58629;48.808;8.820;2023-09-07T12:48:20;97330.84;;;29.31;47.61
70968;BME280;58629;48.808;8.820;2023-09-07T12:50:46;97333.88;;;29.40;47.10
70968;BME280;58629;48.808;8.820;2023-09-07T12:53:11;97332.91;;;29.38;46.57
70968;BME280;58629;48.808;8.820;2023-09-07T12:55:37;97331.00;;;29.46;46.00